Time;durP1;ratioP1;P1;durP2;ratioP2;P2;SDS_P1;SDS_P2;PMS_P1;PMS_P2;Temp;Humidity;BMP_temperature;BMP_pressure;BME280_temperature;BME280_humidity;BME280_pressure;Samples;Min_cycle;Max_cycle;Signal;HPM_P1;HPM_P2
2021/01/21 00:00:08;;;;;;;1.30;1.10;;;5.30;94.40;;;;;;5052759;28;20486;-43
2021/01/21 00:02:35;;;;;;;1.33;1.23;;;5.30;94.20;;;;;;5072205;22;20788;-43
2021/01/21 00:05:01;;;;;;;3.20;1.20;;;5.30;94.30;;;;;;5090754;28;20428;-44
2021/01/21 00:07:27;;;;;;;1.67;1.30;;;5.20;94.60;;;;;;5072569;28;20441;-43
2021/01/21 00:09:53;;;;;;;1.47;1.33;;;5.20;95.60;;;;;;5072857;28;20441;-43
2021/01/21 00:12:20;;;;;;;2.37;1.57;;;5.10;95.40;;;;;;5072810;28;20449;-43
2021/01/21 00:14:46;;;;;;;1.83;1.60;;;5.10;96.30;;;;;;5072720;28;20453;-44
2021/01/21 00:17:12;;;;;;;1.97;1.70;;;5.00;96.10;;;;;;5072769;28;20456;-43
2021/01/21 00:19:39;;;;;;;1.57;1.47;;;5.00;95.70;;;;;;5072321;28;20485;-43
2021/01/21 00:22:05;;;;;;;1.47;1.33;;;5.00;95.70;;;;;;5072725;28;20803;-43
2021/01/21 00:24:32;;;;;;;1.23;1.20;;;5.00;95.50;;;;;;5072434;28;20943;-43
2021/01/21 00:26:58;;;;;;;2.73;1.50;;;5.00;95.10;;;;;;5091853;22;20495;-43
2021/01/21 00:29:25;;;;;;;2.10;1.40;;;5.00;95.40;;;;;;5112860;28;20948;-43
2021/01/21 00:31:52;;;;;;;1.57;1.47;;;4.90;96.40;;;;;;5114468;22;20472;-43
2021/01/21 00:34:18;;;;;;;3.83;1.30;;;4.90;96.00;;;;;;5092834;28;20448;-43
2021/01/21 00:36:45;;;;;;;1.33;1.20;;;4.90;96.30;;;;;;5076070;28;20460;-43
2021/01/21 00:39:12;;;;;;;1.57;1.47;;;4.80;95.70;;;;;;5072553;28;20567;-43
2021/01/21 00:41:38;;;;;;;1.50;1.23;;;4.80;95.70;;;;;;5075634;28;20449;-43
2021/01/21 00:44:05;;;;;;;1.60;1.10;;;4.80;96.20;;;;;;5075739;28;20947;-43
2021/01/21 00:46:31;;;;;;;1.40;1.27;;;4.80;96.00;;;;;;5075984;28;20542;-43
2021/01/21 00:48:58;;;;;;;1.20;1.10;;;4.80;96.00;;;;;;5083306;22;20587;-44
2021/01/21 00:51:26;;;;;;;2.13;1.33;;;4.90;95.90;;;;;;5095764;28;20435;-43
2021/01/21 00:53:53;;;;;;;2.17;1.40;;;4.90;95.90;;;;;;5096088;28;20490;-43
2021/01/21 00:56:20;;;;;;;2.43;1.57;;;4.90;96.30;;;;;;5082750;28;20465;-44
2021/01/21 00:58:46;;;;;;;1.80;1.57;;;4.90;96.40;;;;;;5075478;28;20488;-43
2021/01/21 01:01:12;;;;;;;2.10;1.23;;;4.90;96.80;;;;;;5075457;28;20523;-44
2021/01/21 01:06:07;;;;;;;2.03;1.07;;;4.80;96.80;;;;;;5071849;22;20496;-42
2021/01/21 01:08:34;;;;;;;1.50;1.40;;;4.80;97.50;;;;;;5056987;28;20429;-43
2021/01/21 01:11:01;;;;;;;1.23;1.13;;;4.80;97.60;;;;;;5057215;28;20502;-41
2021/01/21 01:13:27;;;;;;;1.43;1.33;;;4.70;97.00;;;;;;5057156;28;20465;-42
2021/01/21 01:15:54;;;;;;;1.83;1.40;;;4.70;97.10;;;;;;5037556;28;20509;-42
2021/01/21 01:18:20;;;;;;;1.53;1.23;;;4.70;96.70;;;;;;5036195;28;20482;-42
2021/01/21 01:20:48;;;;;;;2.00;1.03;;;4.70;97.10;;;;;;5036219;28;20443;-42
2021/01/21 01:23:14;;;;;;;1.33;1.23;;;4.70;96.30;;;;;;5036276;28;20446;-42
2021/01/21 01:25:40;;;;;;;1.17;1.07;;;4.80;96.70;;;;;;5036096;28;20469;-42
2021/01/21 01:28:08;;;;;;;1.60;1.27;;;5.00;95.50;;;;;;5036075;28;20451;-42
2021/01/21 01:30:34;;;;;;;3.33;3.03;;;5.20;94.90;;;;;;5035435;28;20443;-42
2021/01/21 01:33:00;;;;;;;1.63;1.10;;;5.30;94.50;;;;;;5035248;28;20450;-42
2021/01/21 01:35:27;;;;;;;1.27;1.00;;;5.40;94.00;;;;;;5035702;28;20973;-42
2021/01/21 01:37:53;;;;;;;2.13;1.10;;;5.50;94.20;;;;;;5034874;28;20960;-42
2021/01/21 01:40:19;;;;;;;2.00;1.17;;;5.60;94.30;;;;;;5035080;28;20486;-42
2021/01/21 01:42:50;;;;;;;2.63;0.80;;;5.60;93.60;;;;;;5035079;28;20443;-42
2021/01/21 01:45:17;;;;;;;1.17;0.90;;;5.60;93.80;;;;;;5034046;28;20470;-42
2021/01/21 01:47:45;;;;;;;1.30;1.20;;;5.60;93.60;;;;;;5034691;28;20458;-42
2021/01/21 01:50:14;;;;;;;1.40;1.10;;;5.60;93.50;;;;;;5034984;28;20438;-43
2021/01/21 01:52:41;;;;;;;1.10;1.00;;;5.60;92.70;;;;;;5034823;28;20476;-43
2021/01/21 01:55:11;;;;;;;1.17;1.03;;;5.80;93.30;;;;;;5034410;28;20823;-43
2021/01/21 01:57:38;;;;;;;1.63;1.10;;;5.80;93.20;;;;;;5034795;28;20443;-42
2021/01/21 02:00:05;;;;;;;1.10;0.80;;;5.70;93.40;;;;;;5034626;28;20478;-42
2021/01/21 02:02:33;;;;;;;1.03;0.97;;;5.70;93.00;;;;;;5034449;28;20443;-42
2021/01/21 02:05:01;;;;;;;0.90;0.80;;;5.70;93.10;;;;;;5034397;28;20486;-42
2021/01/21 02:07:27;;;;;;;0.70;0.70;;;5.70;94.20;;;;;;5034637;28;20443;-43
2021/01/21 02:09:55;;;;;;;1.03;0.93;;;5.70;93.30;;;;;;5034512;28;20808;-42
2021/01/21 02:12:36;;;;;;;1.10;0.93;;;5.80;93.20;;;;;;5034493;28;20443;-42
2021/01/21 02:15:08;;;;;;;1.00;0.90;;;5.80;93.00;;;;;;5034169;28;21015;-41
2021/01/21 02:17:44;;;;;;;0.90;0.90;;;5.80;92.90;;;;;;5034576;28;20438;-43
2021/01/21 02:21:01;;;;;;;1.10;1.00;;;5.80;93.30;;;;;;5044024;28;20466;-43
2021/01/21 02:24:12;;;;;;;1.00;0.90;;;5.70;92.90;;;;;;5050062;28;20423;-43
2021/01/21 02:26:45;;;;;;;0.80;0.80;;;5.70;92.90;;;;;;5034328;28;20431;-42
2021/01/21 02:29:13;;;;;;;0.93;0.93;;;5.60;93.80;;;;;;5034512;28;20427;-43
2021/01/21 02:32:09;;;;;;;1.17;1.10;;;5.60;93.80;;;;;;5033813;28;20450;-42
2021/01/21 02:34:40;;;;;;;1.87;0.90;;;5.60;94.40;;;;;;5033698;28;20969;-42
2021/01/21 02:37:14;;;;;;;1.17;0.80;;;5.60;95.30;;;;;;5034052;28;20481;-42
2021/01/21 02:39:44;;;;;;;1.80;1.00;;;5.50;96.50;;;;;;5033932;28;20470;-42
2021/01/21 02:42:10;;;;;;;0.90;0.90;;;5.40;97.10;;;;;;5034516;28;20434;-42
2021/01/21 02:44:37;;;;;;;1.00;0.70;;;5.30;97.70;;;;;;5033866;28;20871;-42
2021/01/21 02:47:03;;;;;;;1.43;1.00;;;5.30;98.10;;;;;;5033504;28;20944;-42
2021/01/21 02:49:29;;;;;;;0.87;0.83;;;5.30;97.00;;;;;;5033883;28;20450;-42
2021/01/21 02:52:06;;;;;;;1.87;1.00;;;5.30;96.90;;;;;;5034312;28;20462;-43
2021/01/21 02:54:45;;;;;;;1.10;1.00;;;5.30;95.80;;;;;;5033680;28;20459;-43
2021/01/21 02:57:18;;;;;;;1.10;1.00;;;5.30;95.60;;;;;;5033771;28;20433;-42
2021/01/21 02:59:45;;;;;;;4.63;1.10;;;5.30;96.20;;;;;;5033676;28;20520;-43
2021/01/21 03:02:13;;;;;;;1.00;1.00;;;5.40;94.80;;;;;;5033531;28;20461;-43
2021/01/21 03:04:39;;;;;;;2.20;0.90;;;5.50;94.00;;;;;;5032937;28;20996;-42
2021/01/21 03:07:09;;;;;;;1.00;1.00;;;5.60;94.40;;;;;;5033598;28;20435;-43
2021/01/21 03:09:36;;;;;;;1.63;0.80;;;5.70;93.40;;;;;;5033241;28;20932;-42
2021/01/21 03:12:19;;;;;;;3.40;0.80;;;5.80;92.70;;;;;;5033136;28;20823;-43
2021/01/21 03:14:46;;;;;;;0.97;0.87;;;5.80;92.50;;;;;;5033368;28;20558;-43
2021/01/21 03:17:13;;;;;;;1.03;0.77;;;5.90;91.90;;;;;;5033418;28;20450;-42
2021/01/21 03:19:39;;;;;;;0.60;0.53;;;6.00;91.30;;;;;;5032444;28;20485;-43
2021/01/21 03:22:05;;;;;;;0.83;0.80;;;6.00;91.50;;;;;;5033355;28;20500;-43
2021/01/21 03:24:32;;;;;;;0.87;0.87;;;6.00;91.60;;;;;;5033367;28;20469;-43
2021/01/21 03:26:59;;;;;;;1.23;0.70;;;6.00;91.20;;;;;;5033320;28;20481;-43
2021/01/21 03:29:26;;;;;;;1.23;0.83;;;6.00;91.40;;;;;;5033286;28;20801;-43
2021/01/21 03:31:53;;;;;;;1.33;1.00;;;6.00;91.10;;;;;;5032980;28;20941;-43
2021/01/21 03:34:19;;;;;;;0.80;0.80;;;6.10;90.80;;;;;;5033358;28;20473;-43
2021/01/21 03:36:45;;;;;;;1.40;0.87;;;6.20;90.70;;;;;;5033359;28;20446;-43
2021/01/21 03:39:12;;;;;;;0.90;0.90;;;6.20;91.10;;;;;;5033234;28;20478;-43
2021/01/21 03:41:39;;;;;;;1.27;0.80;;;6.30;90.80;;;;;;5033521;28;20443;-43
2021/01/21 03:44:06;;;;;;;0.70;0.70;;;6.30;90.70;;;;;;5034190;28;20473;-43
2021/01/21 03:46:32;;;;;;;0.90;0.80;;;6.40;90.00;;;;;;5036724;28;20450;-43
2021/01/21 03:48:58;;;;;;;1.50;1.43;;;6.40;89.60;;;;;;5046722;28;20434;-43
2021/01/21 03:51:24;;;;;;;0.97;0.87;;;6.50;90.00;;;;;;5045693;28;20450;-43
2021/01/21 03:53:51;;;;;;;0.83;0.83;;;6.40;89.50;;;;;;5032996;28;20477;-43
2021/01/21 03:56:17;;;;;;;1.00;0.90;;;6.50;88.70;;;;;;5033034;28;20447;-43
2021/01/21 03:58:44;;;;;;;0.53;0.53;;;6.50;88.70;;;;;;5032917;28;20485;-44
2021/01/21 04:01:10;;;;;;;1.33;1.23;;;6.50;88.80;;;;;;5033038;28;20908;-43
2021/01/21 04:03:37;;;;;;;1.40;1.07;;;6.50;88.60;;;;;;5033312;28;20450;-43
2021/01/21 04:06:03;;;;;;;1.07;0.77;;;6.50;89.10;;;;;;5032548;28;20489;-43
2021/01/21 04:08:29;;;;;;;1.00;0.80;;;6.50;89.50;;;;;;5033661;28;20450;-43
2021/01/21 04:10:56;;;;;;;0.70;0.70;;;6.40;88.60;;;;;;5032962;28;20457;-43
2021/01/21 04:13:22;;;;;;;2.30;0.70;;;6.40;88.40;;;;;;5033591;28;20462;-43
2021/01/21 04:15:50;;;;;;;5.13;0.70;;;6.40;89.10;;;;;;5034663;28;20470;-43
2021/01/21 04:18:16;;;;;;;0.80;0.80;;;6.40;89.00;;;;;;5036279;28;20457;-43
2021/01/21 04:20:42;;;;;;;0.87;0.87;;;6.30;88.80;;;;;;5036269;28;20456;-43
2021/01/21 04:23:09;;;;;;;0.63;0.60;;;6.30;89.50;;;;;;5036600;28;20449;-42
2021/01/21 04:25:35;;;;;;;0.80;0.80;;;6.40;88.80;;;;;;5036357;28;20495;-43
2021/01/21 04:28:03;;;;;;;0.70;0.70;;;6.40;89.30;;;;;;5036377;28;20451;-42
2021/01/21 04:30:29;;;;;;;0.80;0.80;;;6.40;88.20;;;;;;5036432;28;20533;-43
2021/01/21 04:32:56;;;;;;;0.70;0.70;;;6.50;88.20;;;;;;5036429;28;20500;-43
2021/01/21 04:35:23;;;;;;;3.20;0.90;;;6.50;88.20;;;;;;5036199;28;20477;-43
2021/01/21 04:37:49;;;;;;;1.37;0.90;;;6.50;87.40;;;;;;5036211;28;20450;-43
2021/01/21 04:40:15;;;;;;;1.00;0.70;;;6.60;88.50;;;;;;5036133;28;20486;-43
2021/01/21 04:42:42;;;;;;;1.60;0.80;;;6.60;88.50;;;;;;5035863;28;20937;-43
2021/01/21 04:45:09;;;;;;;0.70;0.67;;;6.50;88.50;;;;;;5036076;28;20462;-43
2021/01/21 04:47:36;;;;;;;0.80;0.80;;;6.50;88.80;;;;;;5036115;28;20446;-43
2021/01/21 04:50:05;;;;;;;1.80;0.80;;;6.40;89.50;;;;;;5036126;28;20594;-43
2021/01/21 04:52:36;;;;;;;1.17;1.07;;;6.30;89.40;;;;;;5035717;28;20794;-43
2021/01/21 04:55:07;;;;;;;1.40;1.30;;;6.30;89.60;;;;;;5035681;28;20542;-43
2021/01/21 04:57:42;;;;;;;1.20;0.80;;;6.30;89.90;;;;;;5035744;28;20663;-43
2021/01/21 05:00:10;;;;;;;1.57;0.80;;;6.20;90.00;;;;;;5035981;28;20530;-43
2021/01/21 05:02:39;;;;;;;0.70;0.70;;;6.20;89.10;;;;;;5035888;28;20465;-43
2021/01/21 05:05:09;;;;;;;1.33;1.07;;;6.30;88.90;;;;;;5035555;28;20490;-43
2021/01/21 05:07:36;;;;;;;0.70;0.70;;;6.40;87.50;;;;;;5035951;28;20447;-43
2021/01/21 05:10:03;;;;;;;1.60;0.83;;;6.50;87.30;;;;;;5036087;28;20447;-43
2021/01/21 05:12:29;;;;;;;1.03;0.90;;;6.50;87.30;;;;;;5036309;28;20488;-42
2021/01/21 05:14:56;;;;;;;1.10;1.00;;;6.50;86.30;;;;;;5037643;28;20497;-42
2021/01/21 05:17:22;;;;;;;0.50;0.50;;;6.50;86.80;;;;;;5042500;28;20455;-43
2021/01/21 05:19:51;;;;;;;1.67;0.70;;;6.60;86.60;;;;;;5041983;28;20478;-42
2021/01/21 05:22:19;;;;;;;1.00;0.80;;;6.60;86.60;;;;;;5036308;28;20447;-42
2021/01/21 05:24:45;;;;;;;0.87;0.80;;;6.70;84.80;;;;;;5035297;28;20882;-43
2021/01/21 05:27:12;;;;;;;0.60;0.60;;;6.70;84.70;;;;;;5034724;28;20820;-43
2021/01/21 05:29:41;;;;;;;0.87;0.60;;;6.70;84.90;;;;;;5035300;28;20439;-43
2021/01/21 05:32:08;;;;;;;3.07;0.70;;;6.70;84.20;;;;;;5034914;28;20836;-43
2021/01/21 05:34:35;;;;;;;1.33;0.70;;;6.80;84.00;;;;;;5035200;28;20478;-43
2021/01/21 05:37:02;;;;;;;0.80;0.80;;;6.80;84.60;;;;;;5035207;28;20465;-43
2021/01/21 05:39:36;;;;;;;0.93;0.83;;;6.90;85.30;;;;;;5035093;28;20478;-42
2021/01/21 05:42:04;;;;;;;1.07;0.83;;;6.90;83.90;;;;;;5035076;28;20438;-43
2021/01/21 05:44:31;;;;;;;0.50;0.50;;;7.00;82.90;;;;;;5034721;28;20454;-43
2021/01/21 05:46:57;;;;;;;0.87;0.87;;;7.00;81.90;;;;;;5035215;28;20458;-43
2021/01/21 05:49:26;;;;;;;0.90;0.70;;;7.10;83.00;;;;;;5034367;28;20967;-43
2021/01/21 05:51:54;;;;;;;2.00;0.70;;;7.10;82.00;;;;;;5034868;28;20438;-43
2021/01/21 05:54:22;;;;;;;0.80;0.80;;;7.20;80.90;;;;;;5034433;28;21011;-43
2021/01/21 05:56:50;;;;;;;0.70;0.70;;;7.20;81.70;;;;;;5034708;28;20451;-43
2021/01/21 05:59:16;;;;;;;0.93;0.70;;;7.20;81.30;;;;;;5034351;28;21038;-43
2021/01/21 06:01:43;;;;;;;1.13;1.07;;;7.20;80.00;;;;;;5034430;28;20458;-43
2021/01/21 06:04:11;;;;;;;0.67;0.67;;;7.30;80.10;;;;;;5034759;28;20533;-43
2021/01/21 06:06:39;;;;;;;0.70;0.70;;;7.30;79.60;;;;;;5035048;28;20857;-43
2021/01/21 06:09:06;;;;;;;1.07;0.70;;;7.30;79.50;;;;;;5034532;28;20813;-43
2021/01/21 06:11:32;;;;;;;0.60;0.50;;;7.40;78.80;;;;;;5034427;28;20446;-43
2021/01/21 06:14:01;;;;;;;3.00;1.00;;;7.30;79.30;;;;;;5034385;28;20463;-43
2021/01/21 06:16:27;;;;;;;0.63;0.63;;;7.40;78.60;;;;;;5034526;28;20450;-43
2021/01/21 06:18:54;;;;;;;0.73;0.70;;;7.40;78.40;;;;;;5034233;28;20486;-43
2021/01/21 06:21:26;;;;;;;0.70;0.70;;;7.40;77.90;;;;;;5034309;28;20446;-42
2021/01/21 06:24:02;;;;;;;0.70;0.70;;;7.40;77.70;;;;;;5033996;28;20932;-44
2021/01/21 06:26:34;;;;;;;1.13;0.80;;;7.30;78.30;;;;;;5034269;28;20465;-43
2021/01/21 06:29:02;;;;;;;3.53;1.03;;;7.40;78.70;;;;;;5034042;28;20442;-43
2021/01/21 06:31:31;;;;;;;0.80;0.80;;;7.40;78.70;;;;;;5033973;28;20952;-43
2021/01/21 06:33:59;;;;;;;2.17;0.70;;;7.40;78.70;;;;;;5035814;28;20473;-43
2021/01/21 06:36:28;;;;;;;2.00;1.07;;;7.40;79.20;;;;;;5034201;28;20451;-43
2021/01/21 06:38:59;;;;;;;1.33;0.70;;;7.30;78.70;;;;;;5034356;28;20481;-43
2021/01/21 06:41:28;;;;;;;1.63;0.83;;;7.30;79.00;;;;;;5035521;28;20438;-43
2021/01/21 06:43:55;;;;;;;0.70;0.70;;;7.30;79.30;;;;;;5048570;28;20442;-43
2021/01/21 06:46:23;;;;;;;0.60;0.60;;;7.30;80.00;;;;;;5048193;28;20446;-43
2021/01/21 06:48:50;;;;;;;1.30;1.00;;;7.30;80.30;;;;;;5036278;28;20794;-43
2021/01/21 06:51:18;;;;;;;1.57;1.00;;;7.30;81.60;;;;;;5033807;28;20446;-43
2021/01/21 06:53:46;;;;;;;1.73;1.63;;;7.30;81.10;;;;;;5033679;28;20451;-42
2021/01/21 06:56:13;;;;;;;2.20;0.70;;;7.20;81.20;;;;;;5033454;28;20494;-43
2021/01/21 06:58:49;;;;;;;1.00;0.77;;;7.20;83.50;;;;;;5033587;28;20446;-43
2021/01/21 07:01:43;;;;;;;0.87;0.80;;;7.10;83.70;;;;;;5033669;28;20446;-44
2021/01/21 07:04:26;;;;;;;0.87;0.70;;;7.10;84.80;;;;;;5024050;28;20483;-42
2021/01/21 07:07:12;;;;;;;1.93;0.80;;;7.10;87.20;;;;;;5033383;28;20859;-43
2021/01/21 07:09:41;;;;;;;0.80;0.73;;;7.10;89.80;;;;;;5033279;28;20427;-42
2021/01/21 07:12:18;;;;;;;0.70;0.70;;;7.20;90.70;;;;;;5033523;28;20449;-43
2021/01/21 07:14:48;;;;;;;0.90;0.80;;;7.20;91.00;;;;;;5033413;28;20462;-42
2021/01/21 07:17:16;;;;;;;0.60;0.60;;;7.20;92.60;;;;;;5033456;28;20442;-43
2021/01/21 07:19:45;;;;;;;0.60;0.60;;;7.10;92.90;;;;;;5033282;28;20592;-43
2021/01/21 07:22:20;;;;;;;0.60;0.60;;;7.10;93.80;;;;;;5033891;28;20450;-43
2021/01/21 07:24:57;;;;;;;0.60;0.60;;;7.20;94.70;;;;;;5033257;28;20545;-43
2021/01/21 07:27:25;;;;;;;0.60;0.60;;;7.20;95.10;;;;;;5033423;28;20450;-43
2021/01/21 07:30:16;;;;;;;0.70;0.60;;;7.20;95.70;;;;;;5033171;28;20443;-43
2021/01/21 07:32:44;;;;;;;1.87;0.63;;;7.20;96.00;;;;;;5033137;28;20545;-42
2021/01/21 07:35:35;;;;;;;0.50;0.50;;;7.20;96.20;;;;;;5033205;28;20458;-43
2021/01/21 07:38:01;;;;;;;1.30;0.70;;;7.20;96.50;;;;;;5019077;28;20980;-43
2021/01/21 07:40:42;;;;;;;0.60;0.50;;;7.10;96.90;;;;;;5033089;28;20485;-43
2021/01/21 07:43:09;;;;;;;0.70;0.70;;;7.10;97.00;;;;;;5033247;28;20431;-42
2021/01/21 07:45:35;;;;;;;0.50;0.50;;;7.00;97.40;;;;;;5033572;28;20468;-43
2021/01/21 07:48:25;;;;;;;0.70;0.60;;;7.10;97.50;;;;;;5034500;28;20473;-43
2021/01/21 07:50:53;;;;;;;0.60;0.60;;;7.10;97.80;;;;;;5037721;28;20445;-43
2021/01/21 07:53:24;;;;;;;0.60;0.60;;;7.00;98.10;;;;;;5037438;28;20824;-43
2021/01/21 07:55:52;;;;;;;0.80;0.80;;;6.90;98.50;;;;;;5037449;28;20473;-43
2021/01/21 07:58:30;;;;;;;0.57;0.57;;;7.00;98.80;;;;;;5037947;28;20435;-43
2021/01/21 08:00:57;;;;;;;0.70;0.70;;;7.10;98.60;;;;;;5038391;28;20502;-43
2021/01/21 08:06:06;;;;;;;1.33;0.60;;;7.10;98.70;;;;;;5113507;28;20486;-44
2021/01/21 08:08:33;;;;;;;0.70;0.70;;;7.30;98.50;;;;;;5117595;28;20446;-43
2021/01/21 08:11:04;;;;;;;0.60;0.60;;;7.40;98.40;;;;;;5117673;28;20427;-43
2021/01/21 08:13:31;;;;;;;1.27;0.70;;;7.50;98.40;;;;;;5117578;28;20434;-43
2021/01/21 08:15:58;;;;;;;0.60;0.50;;;7.60;98.20;;;;;;5117585;28;20477;-43
2021/01/21 08:18:24;;;;;;;0.67;0.60;;;7.60;98.40;;;;;;5118524;28;20935;-44
2021/01/21 08:20:51;;;;;;;1.17;0.60;;;7.70;98.50;;;;;;5127373;28;20458;-43
2021/01/21 08:23:18;;;;;;;0.50;0.50;;;7.80;98.00;;;;;;5136555;28;20518;-43
2021/01/21 08:25:45;;;;;;;1.00;0.60;;;7.70;98.10;;;;;;5126297;28;20462;-43
2021/01/21 08:28:14;;;;;;;0.67;0.60;;;7.70;98.40;;;;;;5118363;28;20948;-44
2021/01/21 08:30:41;;;;;;;0.63;0.60;;;7.60;98.70;;;;;;5117385;28;20443;-44
2021/01/21 08:33:11;;;;;;;0.80;0.60;;;7.60;99.00;;;;;;5118035;28;20443;-44
2021/01/21 08:35:43;;;;;;;0.60;0.60;;;7.60;99.20;;;;;;5118102;28;20477;-44
2021/01/21 08:38:12;;;;;;;0.60;0.60;;;7.70;99.30;;;;;;5116985;28;20423;-42
2021/01/21 08:40:40;;;;;;;2.10;0.70;;;7.70;99.40;;;;;;5116617;28;20470;-42
2021/01/21 08:43:07;;;;;;;1.37;0.60;;;7.70;99.90;;;;;;5116856;28;20450;-42
2021/01/21 08:45:34;;;;;;;0.70;0.60;;;7.80;99.70;;;;;;5116743;28;20454;-42
2021/01/21 08:48:00;;;;;;;0.60;0.60;;;7.80;99.80;;;;;;5116378;28;20945;-43
2021/01/21 08:50:35;;;;;;;0.60;0.57;;;7.80;99.90;;;;;;5116704;28;20442;-43
2021/01/21 08:53:04;;;;;;;1.60;0.60;;;7.80;99.90;;;;;;5116548;28;20434;-42
2021/01/21 08:55:46;;;;;;;0.73;0.70;;;7.80;99.90;;;;;;5116685;28;20459;-42
2021/01/21 08:58:13;;;;;;;0.50;0.50;;;8.00;99.90;;;;;;5120426;28;20435;-42
2021/01/21 09:00:55;;;;;;;0.63;0.57;;;8.60;99.30;;;;;;5119139;28;20483;-42
2021/01/21 09:03:32;;;;;;;0.60;0.60;;;9.60;97.50;;;;;;5117712;28;20447;-41
2021/01/21 09:05:59;;;;;;;0.67;0.60;;;11.20;95.00;;;;;;5117304;28;20419;-42
2021/01/21 09:08:25;;;;;;;0.60;0.60;;;12.50;91.60;;;;;;5116763;28;20442;-43
2021/01/21 09:10:56;;;;;;;0.60;0.60;;;13.50;89.00;;;;;;5116557;28;20824;-44
2021/01/21 09:13:22;;;;;;;0.50;0.50;;;14.00;83.90;;;;;;5116553;28;20454;-43
2021/01/21 09:15:55;;;;;;;0.60;0.50;;;14.50;79.60;;;;;;5116671;28;20466;-44
2021/01/21 09:18:23;;;;;;;0.97;0.50;;;14.70;76.20;;;;;;5119037;28;20484;-43
2021/01/21 09:20:50;;;;;;;0.60;0.60;;;15.20;74.00;;;;;;5116387;28;20485;-44
2021/01/21 09:23:19;;;;;;;0.67;0.67;;;15.90;71.80;;;;;;5116178;28;20443;-43
2021/01/21 09:25:46;;;;;;;0.70;0.63;;;16.40;66.70;;;;;;5116457;28;20499;-43
2021/01/21 09:28:13;;;;;;;0.50;0.50;;;17.50;65.10;;;;;;5115598;28;20443;-44
2021/01/21 09:30:40;;;;;;;0.60;0.50;;;18.00;61.00;;;;;;5115842;28;20507;-44
2021/01/21 09:33:07;;;;;;;0.60;0.60;;;17.80;59.30;;;;;;5115550;28;20438;-45
2021/01/21 09:35:33;;;;;;;0.50;0.50;;;17.60;58.50;;;;;;5115685;28;20469;-45
2021/01/21 09:38:00;;;;;;;0.70;0.70;;;17.60;59.70;;;;;;5115418;28;20966;-45
2021/01/21 09:40:27;;;;;;;0.60;0.50;;;17.70;59.30;;;;;;5115642;28;20481;-45
2021/01/21 09:42:55;;;;;;;0.60;0.60;;;17.50;58.40;;;;;;5115843;28;20929;-46
2021/01/21 09:45:24;;;;;;;0.53;0.50;;;17.20;60.00;;;;;;5115573;28;20482;-45
2021/01/21 09:47:50;;;;;;;0.60;0.50;;;17.60;59.20;;;;;;5115209;28;20525;-46
2021/01/21 09:50:18;;;;;;;0.60;0.60;;;17.60;58.30;;;;;;5115926;28;20504;-46
2021/01/21 09:52:45;;;;;;;0.50;0.50;;;16.80;59.20;;;;;;5115305;28;20428;-45
2021/01/21 09:55:12;;;;;;;0.60;0.60;;;16.60;60.50;;;;;;5115366;28;20463;-45
2021/01/21 09:57:39;;;;;;;0.60;0.60;;;16.40;60.50;;;;;;5115323;28;20928;-45
2021/01/21 10:00:07;;;;;;;0.50;0.50;;;16.00;61.40;;;;;;5115446;28;20455;-44
2021/01/21 10:02:35;;;;;;;0.60;0.60;;;16.20;60.70;;;;;;5115597;28;20423;-44
2021/01/21 10:05:01;;;;;;;0.60;0.60;;;16.50;60.30;;;;;;5115872;28;21047;-44
2021/01/21 10:07:28;;;;;;;0.60;0.60;;;17.30;60.00;;;;;;5115876;28;20424;-44
2021/01/21 10:09:54;;;;;;;0.70;0.50;;;18.10;57.90;;;;;;5114760;28;20427;-44
2021/01/21 10:12:21;;;;;;;1.80;0.60;;;19.00;55.90;;;;;;5114854;28;20806;-44
2021/01/21 10:14:47;;;;;;;0.53;0.53;;;18.90;55.50;;;;;;5115281;28;20463;-44
2021/01/21 10:17:14;;;;;;;0.67;0.67;;;18.20;56.70;;;;;;5114550;28;20432;-44
2021/01/21 10:19:41;;;;;;;0.60;0.50;;;17.90;56.60;;;;;;5114834;28;20467;-44
2021/01/21 10:22:07;;;;;;;0.50;0.43;;;17.40;56.90;;;;;;5114596;28;20901;-44
2021/01/21 10:24:34;;;;;;;2.90;0.50;;;16.60;57.80;;;;;;5114902;28;20579;-43
2021/01/21 10:27:01;;;;;;;0.60;0.50;;;15.70;59.50;;;;;;5114507;28;20913;-44
2021/01/21 10:29:27;;;;;;;1.00;0.70;;;14.70;62.10;;;;;;5114844;28;20435;-44
2021/01/21 10:31:53;;;;;;;0.77;0.50;;;14.20;64.30;;;;;;5114779;28;20423;-44
2021/01/21 10:34:20;;;;;;;0.70;0.70;;;14.00;65.40;;;;;;5114676;28;20580;-43
2021/01/21 10:36:47;;;;;;;1.23;0.60;;;13.70;66.50;;;;;;5114658;28;20423;-44
2021/01/21 10:39:18;;;;;;;0.50;0.50;;;13.50;67.80;;;;;;5114969;28;20427;-44
2021/01/21 10:41:45;;;;;;;0.50;0.50;;;13.40;68.50;;;;;;5116407;28;20427;-46
2021/01/21 10:44:11;;;;;;;0.97;0.50;;;13.30;69.80;;;;;;5114107;28;20816;-42
2021/01/21 10:46:37;;;;;;;0.80;0.70;;;13.10;71.90;;;;;;5114383;28;20424;-44
2021/01/21 10:49:04;;;;;;;0.70;0.60;;;12.80;76.60;;;;;;5114293;28;20610;-43
2021/01/21 10:51:30;;;;;;;0.80;0.60;;;12.50;79.00;;;;;;5114296;28;20427;-43
2021/01/21 10:53:57;;;;;;;0.50;0.50;;;12.40;82.10;;;;;;5114153;28;20474;-43
2021/01/21 10:56:23;;;;;;;0.70;0.60;;;12.20;79.80;;;;;;5114260;28;20442;-43
2021/01/21 10:58:51;;;;;;;1.43;0.70;;;11.90;81.50;;;;;;5114245;28;20428;-44
2021/01/21 11:01:17;;;;;;;0.80;0.60;;;11.80;83.40;;;;;;5114232;28;20455;-44
2021/01/21 11:03:43;;;;;;;1.23;0.60;;;11.80;84.80;;;;;;5113750;28;20811;-44
2021/01/21 11:06:10;;;;;;;0.60;0.60;;;11.70;84.20;;;;;;5113854;28;20921;-44
2021/01/21 11:08:36;;;;;;;0.87;0.50;;;11.70;88.00;;;;;;5114248;28;20514;-44
2021/01/21 11:11:03;;;;;;;0.70;0.70;;;11.60;88.90;;;;;;5115045;28;20424;-44
2021/01/21 11:13:32;;;;;;;1.60;0.70;;;11.40;89.00;;;;;;5117165;28;20517;-43
2021/01/21 11:15:58;;;;;;;0.60;0.50;;;11.30;89.10;;;;;;5117386;28;20432;-44
2021/01/21 11:18:25;;;;;;;0.60;0.60;;;11.20;90.50;;;;;;5116954;28;20447;-44
2021/01/21 11:20:51;;;;;;;0.80;0.80;;;11.10;90.30;;;;;;5116991;28;20837;-42
2021/01/21 11:23:17;;;;;;;2.03;1.83;;;11.00;89.40;;;;;;5115353;28;20775;-43
2021/01/21 11:25:43;;;;;;;0.90;0.63;;;11.00;90.40;;;;;;5113654;28;20466;-44
2021/01/21 11:28:12;;;;;;;1.10;0.80;;;11.00;89.50;;;;;;5113894;28;20427;-44
2021/01/21 11:30:38;;;;;;;0.83;0.83;;;11.00;88.60;;;;;;5113710;28;20459;-44
2021/01/21 11:33:04;;;;;;;0.70;0.70;;;11.00;88.90;;;;;;5113868;28;20435;-44
2021/01/21 11:35:31;;;;;;;0.80;0.70;;;11.10;89.10;;;;;;5113628;28;20524;-43
2021/01/21 11:37:57;;;;;;;0.60;0.60;;;11.10;88.10;;;;;;5113844;28;20423;-44
2021/01/21 11:40:23;;;;;;;0.70;0.70;;;11.10;89.50;;;;;;5114280;28;20471;-43
2021/01/21 11:42:50;;;;;;;0.70;0.70;;;11.20;88.30;;;;;;5113733;28;20450;-44
2021/01/21 11:45:17;;;;;;;1.33;0.70;;;11.20;88.10;;;;;;5113717;28;20466;-44
2021/01/21 11:47:43;;;;;;;1.23;0.60;;;11.20;87.50;;;;;;5113629;28;20867;-44
2021/01/21 11:50:12;;;;;;;0.67;0.60;;;11.20;86.90;;;;;;5113776;28;20428;-44
2021/01/21 11:52:38;;;;;;;2.40;0.70;;;11.30;87.70;;;;;;5113695;28;20427;-43
2021/01/21 11:55:06;;;;;;;0.63;0.63;;;11.40;87.20;;;;;;5113609;28;20466;-44
2021/01/21 11:57:33;;;;;;;0.50;0.50;;;11.40;87.90;;;;;;5113366;28;20940;-42
2021/01/21 11:59:59;;;;;;;1.10;0.60;;;11.50;87.00;;;;;;5113449;28;20492;-44
2021/01/21 12:02:26;;;;;;;2.00;0.60;;;11.50;86.60;;;;;;5114004;28;20430;-43
2021/01/21 12:04:53;;;;;;;0.80;0.70;;;11.50;87.20;;;;;;5113027;28;20483;-44
2021/01/21 12:07:19;;;;;;;1.17;0.60;;;11.50;87.20;;;;;;5113534;28;20431;-45
2021/01/21 12:09:45;;;;;;;0.80;0.60;;;11.60;87.20;;;;;;5114567;28;20426;-44
2021/01/21 12:12:11;;;;;;;1.10;0.70;;;11.60;87.00;;;;;;5114155;28;20439;-43
2021/01/21 12:14:38;;;;;;;0.90;0.70;;;11.60;87.00;;;;;;5113069;28;20455;-43
2021/01/21 12:17:04;;;;;;;0.90;0.80;;;11.70;87.30;;;;;;5113380;28;20427;-44
2021/01/21 12:19:32;;;;;;;0.67;0.67;;;11.70;87.10;;;;;;5112908;28;20876;-45
2021/01/21 12:21:59;;;;;;;1.50;0.70;;;11.70;87.00;;;;;;5113336;28;20928;-44
2021/01/21 12:24:25;;;;;;;0.60;0.60;;;11.70;87.30;;;;;;5113334;28;20462;-43
2021/01/21 12:26:51;;;;;;;0.60;0.60;;;11.60;87.00;;;;;;5113455;28;20435;-45
2021/01/21 12:29:17;;;;;;;0.83;0.60;;;11.60;88.60;;;;;;5113226;28;20431;-44
2021/01/21 12:31:43;;;;;;;0.60;0.60;;;11.60;87.70;;;;;;5113267;28;20440;-44
2021/01/21 12:34:10;;;;;;;0.70;0.70;;;11.60;87.10;;;;;;5113384;28;20459;-44
2021/01/21 12:36:37;;;;;;;0.63;0.63;;;11.60;87.00;;;;;;5114893;28;20427;-44
2021/01/21 12:39:04;;;;;;;0.60;0.60;;;11.60;87.90;;;;;;5116549;28;20930;-45
2021/01/21 12:41:30;;;;;;;0.80;0.60;;;11.50;89.60;;;;;;5116465;28;20458;-45
2021/01/21 12:43:57;;;;;;;0.60;0.60;;;11.30;88.60;;;;;;5116761;28;20466;-44
2021/01/21 12:46:25;;;;;;;0.70;0.70;;;11.30;89.30;;;;;;5116740;28;20431;-44
2021/01/21 12:48:51;;;;;;;0.87;0.87;;;11.30;90.10;;;;;;5116743;28;20510;-43
2021/01/21 12:51:18;;;;;;;0.70;0.70;;;11.40;90.10;;;;;;5116628;28;20431;-43
2021/01/21 12:53:45;;;;;;;0.80;0.70;;;11.20;90.00;;;;;;5116566;28;20438;-43
2021/01/21 12:56:11;;;;;;;0.70;0.70;;;11.10;90.40;;;;;;5116479;28;20431;-43
2021/01/21 12:58:37;;;;;;;0.70;0.70;;;11.10;90.60;;;;;;5116456;28;20427;-44
2021/01/21 13:01:04;;;;;;;0.60;0.60;;;11.10;90.50;;;;;;5116406;28;20826;-44
2021/01/21 13:03:30;;;;;;;0.60;0.50;;;11.00;90.70;;;;;;5115811;28;20427;-43